createdAt,value
2022-11-15T00:02:31.487Z,19.53
2022-11-15T00:05:36.604Z,19.43
2022-11-15T00:08:39.264Z,18.30
2022-11-15T00:11:43.220Z,19.70
2022-11-15T00:14:45.856Z,19.77
2022-11-15T00:17:50.909Z,19.30
2022-11-15T00:20:53.555Z,19.50
2022-11-15T00:23:56.196Z,19.43
2022-11-15T00:27:00.152Z,19.10
2022-11-15T00:30:02.834Z,19.97
2022-11-15T00:33:06.082Z,18.77
2022-11-15T00:36:11.565Z,19.67
2022-11-15T00:39:14.179Z,18.60
2022-11-15T00:42:18.141Z,18.90
2022-11-15T00:45:20.921Z,19.30
2022-11-15T00:48:23.833Z,18.63
2022-11-15T00:51:26.492Z,18.23
2022-11-15T00:54:29.126Z,17.37
2022-11-15T00:57:33.200Z,18.93
2022-11-15T01:00:35.857Z,18.30
2022-11-15T01:03:39.516Z,18.30
2022-11-15T01:06:42.132Z,18.03
2022-11-15T01:09:44.752Z,18.10
2022-11-15T01:12:48.746Z,17.87
2022-11-15T01:15:51.356Z,18.50
2022-11-15T01:18:53.989Z,17.70
2022-11-15T01:21:56.596Z,17.77
2022-11-15T01:24:59.449Z,18.10
2022-11-15T01:28:03.404Z,17.57
2022-11-15T01:31:08.353Z,19.20
2022-11-15T01:34:10.967Z,17.20
2022-11-15T01:37:13.613Z,17.40
2022-11-15T01:40:16.403Z,17.57
2022-11-15T01:43:25.355Z,16.80
2022-11-15T01:46:33.388Z,16.30
2022-11-15T01:49:40.031Z,16.47
2022-11-15T01:52:43.595Z,15.73
2022-11-15T01:55:46.515Z,15.77
2022-11-15T01:58:52.560Z,15.83
2022-11-15T02:01:55.710Z,16.43
2022-11-15T02:04:58.412Z,16.70
2022-11-15T02:08:02.041Z,15.77
2022-11-15T02:11:06.703Z,15.30
2022-11-15T02:14:12.233Z,15.23
2022-11-15T02:17:33.330Z,15.50
2022-11-15T02:20:44.397Z,14.57
2022-11-15T02:24:14.234Z,15.60
2022-11-15T02:27:58.682Z,14.57
2022-11-15T02:31:07.522Z,15.40
2022-11-15T02:34:17.964Z,15.10
2022-11-15T02:37:28.894Z,14.37
2022-11-15T02:40:40.272Z,14.77
2022-11-15T02:44:00.118Z,13.53
2022-11-15T02:47:17.411Z,13.87
2022-11-15T02:50:23.334Z,13.57
2022-11-15T02:53:27.104Z,13.80
2022-11-15T02:56:29.771Z,13.80
2022-11-15T02:59:59.466Z,13.07
2022-11-15T03:03:31.321Z,13.30
2022-11-15T03:06:40.552Z,13.57
2022-11-15T03:09:52.457Z,13.10
2022-11-15T03:12:59.494Z,12.87
2022-11-15T03:16:08.289Z,13.40
2022-11-15T03:19:18.427Z,13.20
2022-11-15T03:22:24.868Z,12.97
2022-11-15T03:25:30.281Z,13.93
2022-11-15T03:28:38.336Z,14.00
2022-11-15T03:31:50.574Z,13.57
2022-11-15T03:35:00.133Z,13.50
2022-11-15T03:38:10.301Z,13.47
2022-11-15T03:41:22.441Z,13.57
2022-11-15T03:44:39.232Z,13.30
2022-11-15T03:47:45.759Z,13.03
2022-11-15T03:50:50.541Z,12.43
2022-11-15T03:53:53.607Z,12.53
2022-11-15T03:56:56.539Z,12.93
2022-11-15T03:59:59.181Z,12.37
2022-11-15T04:03:01.842Z,13.07
2022-11-15T04:06:06.262Z,11.70
2022-11-15T04:09:09.056Z,11.90
2022-11-15T04:12:11.668Z,12.00
2022-11-15T04:15:16.573Z,11.87
2022-11-15T04:18:19.190Z,11.80
2022-11-15T04:21:40.514Z,11.63
2022-11-15T04:24:43.138Z,11.73
2022-11-15T04:27:45.756Z,11.17
2022-11-15T04:30:48.555Z,11.63
2022-11-15T04:33:51.191Z,11.83
2022-11-15T04:37:12.710Z,11.67
2022-11-15T04:40:15.376Z,11.80
2022-11-15T04:43:18.026Z,11.83
2022-11-15T04:46:20.658Z,12.00
2022-11-15T04:49:23.292Z,11.57
2022-11-15T04:52:27.271Z,11.47
2022-11-15T04:55:29.874Z,12.10
2022-11-15T04:58:32.528Z,12.00
2022-11-15T05:01:35.240Z,11.17
2022-11-15T05:04:38.441Z,11.40
2022-11-15T05:07:42.477Z,10.97
2022-11-15T05:10:45.106Z,11.20
2022-11-15T05:13:47.953Z,11.83
2022-11-15T05:16:50.585Z,11.83
2022-11-15T05:19:53.402Z,11.67
2022-11-15T05:22:57.434Z,12.23
2022-11-15T05:26:06.426Z,11.50
2022-11-15T05:29:12.352Z,12.70
2022-11-15T05:32:15.210Z,12.37
2022-11-15T05:35:23.820Z,12.67
2022-11-15T05:38:28.129Z,13.00
2022-11-15T05:41:35.965Z,14.77
2022-11-15T05:44:41.350Z,13.37
2022-11-15T05:47:44.751Z,13.27
2022-11-15T05:50:49.245Z,14.00
2022-11-15T05:53:55.161Z,13.93
2022-11-15T05:56:57.829Z,13.43
2022-11-15T06:00:00.669Z,14.03
2022-11-15T06:03:03.448Z,13.00
2022-11-15T06:06:06.268Z,14.20
2022-11-15T06:09:10.245Z,14.33
2022-11-15T06:12:12.856Z,13.10
2022-11-15T06:15:15.501Z,13.47
2022-11-15T06:18:18.101Z,12.90
2022-11-15T06:21:20.997Z,13.27
2022-11-15T06:24:24.927Z,14.07
2022-11-15T06:27:27.535Z,13.83
2022-11-15T06:30:30.189Z,13.93
2022-11-15T06:33:33.212Z,14.23
2022-11-15T06:36:36.603Z,13.53
2022-11-15T06:39:40.584Z,13.97
2022-11-15T06:42:43.232Z,14.20
2022-11-15T06:45:45.837Z,13.40
2022-11-15T06:48:48.721Z,14.70
2022-11-15T06:51:51.352Z,14.60
2022-11-15T06:54:55.343Z,14.23
2022-11-15T06:57:57.941Z,14.47
2022-11-15T07:01:02.092Z,14.17
2022-11-15T07:04:04.797Z,14.63
2022-11-15T07:07:07.476Z,13.70
2022-11-15T07:10:11.846Z,14.40
2022-11-15T07:13:14.438Z,15.57
2022-11-15T07:16:17.028Z,15.07
2022-11-15T07:19:19.611Z,14.07
2022-11-15T07:22:22.249Z,14.13
2022-11-15T07:25:26.219Z,13.53
2022-11-15T07:28:29.674Z,14.73
2022-11-15T07:31:32.473Z,15.10
2022-11-15T07:34:35.059Z,14.03
2022-11-15T07:37:37.680Z,14.30
2022-11-15T07:40:41.653Z,14.40
2022-11-15T07:43:44.250Z,14.00
2022-11-15T07:46:46.912Z,14.20
2022-11-15T07:49:49.556Z,14.67
2022-11-15T07:52:56.006Z,13.83
2022-11-15T07:56:00.021Z,13.27
2022-11-15T07:59:02.659Z,13.67
2022-11-15T08:02:05.353Z,13.73
2022-11-15T08:05:08.801Z,14.70
2022-11-15T08:08:13.037Z,14.50
2022-11-15T08:11:17.060Z,13.57
2022-11-15T08:14:19.705Z,14.00
2022-11-15T08:17:22.341Z,14.40
2022-11-15T08:20:25.375Z,14.70
2022-11-15T08:23:28.633Z,14.40
2022-11-15T08:26:32.687Z,14.00
2022-11-15T08:29:35.398Z,14.13
2022-11-15T08:32:38.020Z,13.53
2022-11-15T08:35:40.735Z,13.33
2022-11-15T08:38:43.560Z,13.30
2022-11-15T08:41:47.514Z,13.67
2022-11-15T08:44:50.124Z,14.93
2022-11-15T08:47:54.363Z,13.33
2022-11-15T08:50:57.931Z,12.70
2022-11-15T08:54:00.540Z,14.33
2022-11-15T08:57:04.690Z,13.80
2022-11-15T09:00:08.567Z,13.70
2022-11-15T09:03:11.210Z,13.80
2022-11-15T09:06:14.204Z,12.90
2022-11-15T09:09:16.854Z,13.90
2022-11-15T09:12:20.941Z,12.67
2022-11-15T09:15:23.602Z,13.47
2022-11-15T09:18:26.578Z,12.77
2022-11-15T09:21:30.721Z,12.30
2022-11-15T09:24:33.342Z,12.77
2022-11-15T09:27:37.665Z,12.27
2022-11-15T09:30:40.264Z,12.13
2022-11-15T09:33:45.821Z,11.33
2022-11-15T09:36:48.487Z,12.03
2022-11-15T09:39:51.111Z,12.13
2022-11-15T09:43:08.214Z,12.13
2022-11-15T09:46:21.460Z,12.47
2022-11-15T09:49:24.524Z,12.47
2022-11-15T09:52:27.385Z,11.70
2022-11-15T09:55:37.133Z,11.63
2022-11-15T09:58:50.510Z,11.80
2022-11-15T10:02:01.812Z,11.67
2022-11-15T10:05:04.935Z,12.00
2022-11-15T10:08:18.492Z,12.03
2022-11-15T10:11:40.180Z,11.53
2022-11-15T10:14:45.382Z,10.63
2022-11-15T10:18:14.461Z,11.20
2022-11-15T10:21:21.724Z,11.53
2022-11-15T10:24:29.514Z,10.20
2022-11-15T10:27:32.210Z,10.47
2022-11-15T10:30:39.012Z,11.23
2022-11-15T10:33:41.677Z,10.47
2022-11-15T10:36:50.301Z,10.90
2022-11-15T10:40:05.730Z,10.17
2022-11-15T10:43:16.930Z,9.93
2022-11-15T10:46:46.127Z,10.33
2022-11-15T10:49:56.546Z,10.70
2022-11-15T10:53:00.982Z,10.60
2022-11-15T10:56:09.033Z,10.60
2022-11-15T10:59:20.227Z,10.67
2022-11-15T11:02:34.278Z,9.97
2022-11-15T11:05:42.255Z,10.83
2022-11-15T11:08:57.247Z,10.77
2022-11-15T11:12:00.420Z,10.23
2022-11-15T11:15:11.363Z,11.33
2022-11-15T11:18:21.369Z,9.70
2022-11-15T11:21:39.760Z,9.90
2022-11-15T11:24:48.058Z,9.07
2022-11-15T11:28:04.978Z,10.30
2022-11-15T11:31:22.111Z,10.20
2022-11-15T11:34:42.924Z,8.77
2022-11-15T11:37:51.244Z,10.10
2022-11-15T11:41:06.081Z,9.10
2022-11-15T11:44:20.562Z,9.80
2022-11-15T11:47:25.736Z,10.00
2022-11-15T11:50:29.997Z,9.60
2022-11-15T11:53:40.992Z,9.90
2022-11-15T11:56:47.176Z,10.07
2022-11-15T11:59:55.362Z,9.80
2022-11-15T12:03:08.817Z,8.90
2022-11-15T12:06:28.588Z,9.03
2022-11-15T12:09:35.764Z,9.67
2022-11-15T12:12:43.461Z,9.60
2022-11-15T12:15:50.808Z,9.33
2022-11-15T12:18:56.163Z,9.40
2022-11-15T12:22:04.367Z,9.43
2022-11-15T12:25:16.648Z,9.73
2022-11-15T12:28:27.702Z,9.80
2022-11-15T12:31:38.879Z,9.67
2022-11-15T12:34:47.690Z,9.77
2022-11-15T12:37:52.940Z,9.50
2022-11-15T12:41:17.962Z,9.30
2022-11-15T12:45:02.343Z,9.10
2022-11-15T12:48:44.393Z,9.43
2022-11-15T12:52:08.875Z,8.67
2022-11-15T12:55:35.284Z,8.80
2022-11-15T12:58:44.747Z,9.03
2022-11-15T13:02:03.204Z,9.03
2022-11-15T13:05:45.730Z,8.70
2022-11-15T13:08:51.832Z,8.33
2022-11-15T13:11:56.978Z,8.80
2022-11-15T13:15:00.585Z,8.87
2022-11-15T13:18:35.877Z,8.57
2022-11-15T13:22:08.689Z,9.07
2022-11-15T13:25:20.082Z,8.93
2022-11-15T13:28:32.712Z,8.63
2022-11-15T13:31:42.430Z,8.17
2022-11-15T13:34:52.459Z,8.60
2022-11-15T13:37:57.043Z,9.53
2022-11-15T13:41:01.644Z,8.60
2022-11-15T13:44:06.099Z,8.77
2022-11-15T13:47:14.678Z,8.23
2022-11-15T13:50:17.959Z,8.37
2022-11-15T13:53:20.651Z,8.73
2022-11-15T13:56:23.572Z,8.07
2022-11-15T13:59:29.532Z,8.67
2022-11-15T14:02:36.301Z,7.67
2022-11-15T14:05:39.368Z,8.13
2022-11-15T14:08:43.079Z,8.33
2022-11-15T14:11:53.489Z,7.70
2022-11-15T14:14:57.933Z,8.17
2022-11-15T14:18:01.045Z,7.63
2022-11-15T14:21:08.337Z,7.33
2022-11-15T14:24:16.970Z,8.10
2022-11-15T14:27:25.810Z,7.27
2022-11-15T14:30:29.766Z,8.50
2022-11-15T14:33:35.136Z,7.90
2022-11-15T14:36:37.812Z,8.03
2022-11-15T14:39:40.441Z,8.00
2022-11-15T14:42:43.268Z,7.93
2022-11-15T14:45:47.221Z,8.27
2022-11-15T14:48:49.899Z,7.80
2022-11-15T14:51:52.529Z,8.10
2022-11-15T14:54:55.480Z,8.67
2022-11-15T14:57:58.108Z,8.03
2022-11-15T15:01:04.337Z,8.03
2022-11-15T15:04:07.178Z,7.63
2022-11-15T15:07:09.899Z,7.90
2022-11-15T15:10:38.436Z,8.27
2022-11-15T15:13:35.891Z,8.40
2022-11-15T15:16:39.949Z,8.47
2022-11-15T15:19:42.650Z,8.40
2022-11-15T15:22:46.111Z,8.10
2022-11-15T15:25:50.305Z,8.43
2022-11-15T15:28:53.088Z,8.13
2022-11-15T15:31:57.032Z,8.00
2022-11-15T15:35:00.277Z,8.10
2022-11-15T15:38:03.136Z,8.13
2022-11-15T15:41:05.899Z,7.10
2022-11-15T15:44:08.535Z,7.77
2022-11-15T15:47:14.473Z,8.20
2022-11-15T15:50:24.143Z,8.50
2022-11-15T15:53:26.763Z,8.30
2022-11-15T15:56:29.416Z,8.30
2022-11-15T15:59:33.191Z,8.33
2022-11-15T16:02:40.502Z,8.57
2022-11-15T16:05:43.508Z,7.77
2022-11-15T16:09:08.275Z,7.90
2022-11-15T16:12:08.733Z,8.40
2022-11-15T16:15:11.701Z,8.40
2022-11-15T16:18:18.153Z,8.63
2022-11-15T16:21:20.810Z,8.60
2022-11-15T16:24:23.741Z,8.93
2022-11-15T16:27:26.385Z,7.37
2022-11-15T16:30:29.072Z,7.93
2022-11-15T16:33:34.102Z,8.13
2022-11-15T16:36:37.619Z,8.50
2022-11-15T16:39:40.372Z,8.57
2022-11-15T16:42:43.003Z,8.27
2022-11-15T16:45:45.697Z,7.80
2022-11-15T16:48:50.568Z,7.90
2022-11-15T16:51:53.351Z,8.03
2022-11-15T16:54:55.980Z,7.83
2022-11-15T16:57:59.039Z,8.47
2022-11-15T17:01:01.727Z,7.70
2022-11-15T17:04:12.730Z,8.17
2022-11-15T17:07:15.679Z,8.50
2022-11-15T17:10:18.622Z,8.47
2022-11-15T17:13:21.213Z,8.20
2022-11-15T17:16:23.809Z,8.47
2022-11-15T17:19:27.760Z,8.30
2022-11-15T17:22:30.408Z,8.27
2022-11-15T17:25:33.024Z,7.63
2022-11-15T17:28:36.481Z,8.27
2022-11-15T17:31:39.684Z,8.00
2022-11-15T17:34:43.672Z,8.53
2022-11-15T17:37:48.222Z,8.30
2022-11-15T17:40:50.906Z,7.73
2022-11-15T17:43:53.557Z,7.10
2022-11-15T17:46:56.197Z,7.17
2022-11-15T17:50:00.146Z,8.20
2022-11-15T17:53:02.768Z,8.17
2022-11-15T17:56:06.324Z,8.03
2022-11-15T17:59:13.684Z,8.00
2022-11-15T18:02:19.347Z,7.67
2022-11-15T18:05:23.294Z,8.00
2022-11-15T18:08:25.911Z,7.70
2022-11-15T18:11:30.498Z,8.00
2022-11-15T18:14:33.166Z,7.73
2022-11-15T18:17:37.220Z,8.37
2022-11-15T18:20:41.241Z,8.10
2022-11-15T18:23:44.823Z,8.17
2022-11-15T18:26:47.468Z,7.70
2022-11-15T18:29:50.072Z,8.10
2022-11-15T18:32:53.761Z,9.13
2022-11-15T18:36:06.398Z,8.40
2022-11-15T18:39:16.079Z,8.60
2022-11-15T18:42:18.683Z,8.60
2022-11-15T18:45:24.088Z,9.07
2022-11-15T18:48:30.357Z,9.37
2022-11-15T18:51:36.436Z,8.73
2022-11-15T18:54:39.029Z,9.20
2022-11-15T18:57:41.857Z,8.70
2022-11-15T19:00:44.506Z,9.47
2022-11-15T19:03:49.080Z,9.63
2022-11-15T19:06:53.888Z,9.73
2022-11-15T19:09:56.881Z,9.43
2022-11-15T19:12:59.487Z,8.97
2022-11-15T19:16:03.413Z,9.37
2022-11-15T19:19:08.607Z,9.63
2022-11-15T19:22:12.569Z,9.70
2022-11-15T19:25:15.245Z,9.90
2022-11-15T19:28:17.869Z,9.93
2022-11-15T19:31:21.470Z,9.93
2022-11-15T19:34:24.088Z,9.50
2022-11-15T19:37:28.069Z,10.07
2022-11-15T19:40:31.345Z,13.27
2022-11-15T19:43:34.713Z,11.07
2022-11-15T19:46:38.300Z,10.90
2022-11-15T19:49:41.003Z,11.77
2022-11-15T19:52:45.177Z,11.77
2022-11-15T19:55:55.076Z,11.73
2022-11-15T19:58:57.986Z,10.80
2022-11-15T20:02:00.599Z,11.23
2022-11-15T20:05:03.331Z,11.87
2022-11-15T20:08:07.547Z,12.33
2022-11-15T20:11:10.615Z,12.83
2022-11-15T20:14:13.867Z,12.77
2022-11-15T20:17:16.537Z,12.67
2022-11-15T20:20:19.351Z,12.23
2022-11-15T20:23:23.677Z,12.93
2022-11-15T20:26:26.399Z,12.90
2022-11-15T20:29:29.027Z,12.93
2022-11-15T20:32:32.194Z,13.53
2022-11-15T20:35:34.975Z,14.07
2022-11-15T20:38:39.419Z,13.73
2022-11-15T20:41:42.071Z,13.27
2022-11-15T20:44:44.706Z,13.30
2022-11-15T20:47:47.373Z,13.33
2022-11-15T20:50:50.348Z,13.90
2022-11-15T20:53:54.315Z,13.10
2022-11-15T20:56:56.940Z,13.60
2022-11-15T21:00:04.367Z,14.07
2022-11-15T21:03:08.388Z,13.47
2022-11-15T21:06:11.398Z,13.30
2022-11-15T21:09:32.969Z,12.93
2022-11-15T21:12:35.598Z,12.67
2022-11-15T21:15:38.240Z,12.57
2022-11-15T21:18:40.852Z,12.47
2022-11-15T21:21:43.557Z,13.60
2022-11-15T21:24:47.586Z,13.67
2022-11-15T21:27:50.172Z,13.33
2022-11-15T21:30:54.938Z,13.17
2022-11-15T21:33:57.937Z,13.30
2022-11-15T21:37:00.763Z,13.67
2022-11-15T21:40:05.324Z,14.03
2022-11-15T21:43:07.980Z,14.63
2022-11-15T21:46:10.692Z,13.90
2022-11-15T21:49:13.329Z,13.70
2022-11-15T21:52:15.907Z,13.57
2022-11-15T21:55:19.889Z,15.03
2022-11-15T21:58:23.193Z,14.40
2022-11-15T22:01:44.996Z,13.50
2022-11-15T22:04:47.685Z,14.00
2022-11-15T22:07:50.321Z,14.73
2022-11-15T22:10:56.644Z,15.77
2022-11-15T22:13:59.740Z,14.80
2022-11-15T22:17:02.354Z,14.30
2022-11-15T22:20:43.029Z,15.57
2022-11-15T22:23:39.245Z,14.47
2022-11-15T22:26:43.281Z,14.27
2022-11-15T22:29:45.979Z,16.10
2022-11-15T22:32:48.764Z,15.13
2022-11-15T22:35:52.077Z,13.97
2022-11-15T22:38:54.803Z,14.53
2022-11-15T22:41:59.064Z,14.40
2022-11-15T22:45:01.748Z,13.03
2022-11-15T22:48:04.572Z,14.20
2022-11-15T22:51:08.412Z,13.93
2022-11-15T22:54:11.075Z,13.40
2022-11-15T22:57:15.165Z,14.23
2022-11-15T23:00:18.614Z,13.70
2022-11-15T23:03:22.393Z,14.43
2022-11-15T23:06:25.153Z,13.97
2022-11-15T23:09:27.848Z,13.97
2022-11-15T23:12:45.786Z,12.67
2022-11-15T23:16:07.553Z,13.53
2022-11-15T23:19:12.104Z,14.00
2022-11-15T23:22:32.191Z,13.93
2022-11-15T23:25:34.872Z,13.67
2022-11-15T23:28:38.954Z,14.30
2022-11-15T23:32:02.406Z,13.40
2022-11-15T23:35:06.525Z,14.03
2022-11-15T23:38:09.182Z,13.80
2022-11-15T23:41:11.881Z,14.83
2022-11-15T23:44:15.960Z,14.90
2022-11-15T23:47:18.819Z,14.40
2022-11-15T23:50:21.509Z,14.03
2022-11-15T23:53:24.244Z,14.47
2022-11-15T23:56:27.362Z,15.13
2022-11-15T23:59:31.408Z,15.00
